createdAt,value
2023-02-08T00:02:08.865Z,11.67
2023-02-08T00:04:35.789Z,11.30
2023-02-08T00:07:02.727Z,10.07
2023-02-08T00:09:30.295Z,10.10
2023-02-08T00:11:57.179Z,9.87
2023-02-08T00:14:25.482Z,10.37
2023-02-08T00:16:52.336Z,9.87
2023-02-08T00:19:19.215Z,11.70
2023-02-08T00:21:46.105Z,11.27
2023-02-08T00:24:13.146Z,11.50
2023-02-08T00:26:40.065Z,9.37
2023-02-08T00:29:06.952Z,11.80
2023-02-08T00:31:36.582Z,9.93
2023-02-08T00:34:04.362Z,9.40
2023-02-08T00:36:31.289Z,13.50
2023-02-08T00:38:58.169Z,10.43
2023-02-08T00:41:25.243Z,12.57
2023-02-08T00:43:52.206Z,13.97
2023-02-08T00:46:20.551Z,11.50
2023-02-08T00:48:51.089Z,12.93
2023-02-08T00:51:18.321Z,10.20
2023-02-08T00:53:45.983Z,10.97
2023-02-08T00:56:15.100Z,9.87
2023-02-08T00:58:42.859Z,10.73
2023-02-08T01:01:11.414Z,9.67
2023-02-08T01:03:40.023Z,8.23
2023-02-08T01:06:12.653Z,10.00
2023-02-08T01:08:39.574Z,11.63
2023-02-08T01:11:08.688Z,9.43
2023-02-08T01:13:37.162Z,9.67
2023-02-08T01:16:09.250Z,8.20
2023-02-08T01:18:37.715Z,7.80
2023-02-08T01:21:06.388Z,8.93
2023-02-08T01:23:34.795Z,9.70
2023-02-08T01:26:03.164Z,8.63
2023-02-08T01:28:30.143Z,9.63
2023-02-08T01:30:57.384Z,10.67
2023-02-08T01:33:24.411Z,8.43
2023-02-08T01:35:52.422Z,10.20
2023-02-08T01:38:19.544Z,10.47
2023-02-08T01:40:47.793Z,9.13
2023-02-08T01:43:21.406Z,8.30
2023-02-08T01:45:48.415Z,9.33
2023-02-08T01:48:19.995Z,9.00
2023-02-08T01:50:52.722Z,8.50
2023-02-08T01:53:20.409Z,10.70
2023-02-08T01:55:54.030Z,11.60
2023-02-08T01:58:22.076Z,8.30
2023-02-08T02:00:49.266Z,9.47
2023-02-08T02:03:17.244Z,9.40
2023-02-08T02:05:47.596Z,10.30
2023-02-08T02:08:14.566Z,8.87
2023-02-08T02:10:43.141Z,7.60
2023-02-08T02:13:13.760Z,9.03
2023-02-08T02:15:44.509Z,10.63
2023-02-08T02:18:12.147Z,9.37
2023-02-08T02:20:57.836Z,9.40
2023-02-08T02:24:04.397Z,10.20
2023-02-08T02:26:53.409Z,9.30
2023-02-08T02:29:57.858Z,10.20
2023-02-08T02:32:36.456Z,8.20
2023-02-08T02:35:07.977Z,11.43
2023-02-08T02:37:45.911Z,10.37
2023-02-08T02:40:20.167Z,10.60
2023-02-08T02:43:17.525Z,10.00
2023-02-08T02:45:50.254Z,11.43
2023-02-08T02:48:23.197Z,9.70
2023-02-08T02:50:55.020Z,9.23
2023-02-08T02:53:29.455Z,12.60
2023-02-08T02:56:00.596Z,9.70
2023-02-08T02:58:28.913Z,9.20
2023-02-08T03:00:58.745Z,9.43
2023-02-08T03:03:30.448Z,11.93
2023-02-08T03:06:02.847Z,9.37
2023-02-08T03:09:00.663Z,8.67
2023-02-08T03:11:31.695Z,10.07
2023-02-08T03:14:18.460Z,10.30
2023-02-08T03:17:03.278Z,9.80
2023-02-08T03:19:36.527Z,11.30
2023-02-08T03:22:11.497Z,11.37
2023-02-08T03:24:45.401Z,9.47
2023-02-08T03:27:18.836Z,10.00
2023-02-08T03:29:54.220Z,9.97
2023-02-08T03:32:26.964Z,10.90
2023-02-08T03:35:01.486Z,10.43
2023-02-08T03:37:32.215Z,10.53
2023-02-08T03:40:02.957Z,10.43
2023-02-08T03:42:33.756Z,10.60
2023-02-08T03:45:04.393Z,10.03
2023-02-08T03:47:35.981Z,9.33
2023-02-08T03:50:08.451Z,10.20
2023-02-08T03:52:36.730Z,9.77
2023-02-08T03:55:08.066Z,9.83
2023-02-08T03:57:38.528Z,11.10
2023-02-08T04:00:15.694Z,11.47
2023-02-08T04:02:47.770Z,9.30
2023-02-08T04:05:16.496Z,10.43
2023-02-08T04:07:43.410Z,9.40
2023-02-08T04:10:10.432Z,10.97
2023-02-08T04:12:38.090Z,11.63
2023-02-08T04:15:05.717Z,10.57
2023-02-08T04:17:32.907Z,10.60
2023-02-08T04:20:00.446Z,11.03
2023-02-08T04:22:28.763Z,10.50
2023-02-08T04:24:55.586Z,11.00
2023-02-08T04:27:22.759Z,11.60
2023-02-08T04:29:49.574Z,9.73
2023-02-08T04:32:16.496Z,10.20
2023-02-08T04:34:43.397Z,10.60
2023-02-08T04:37:11.038Z,11.33
2023-02-08T04:39:39.320Z,11.50
2023-02-08T04:42:06.313Z,10.80
2023-02-08T04:44:33.214Z,11.23
2023-02-08T04:47:00.179Z,11.63
2023-02-08T04:49:26.995Z,12.47
2023-02-08T04:51:53.892Z,9.97
2023-02-08T04:54:21.285Z,10.33
2023-02-08T04:56:49.880Z,10.47
2023-02-08T04:59:16.848Z,12.03
2023-02-08T05:01:43.824Z,10.30
2023-02-08T05:04:11.020Z,10.57
2023-02-08T05:06:37.903Z,10.53
2023-02-08T05:09:07.597Z,11.47
2023-02-08T05:11:34.529Z,9.23
2023-02-08T05:14:02.969Z,12.77
2023-02-08T05:16:29.917Z,10.00
2023-02-08T05:18:57.014Z,10.73
2023-02-08T05:21:23.934Z,10.27
2023-02-08T05:23:50.987Z,10.07
2023-02-08T05:26:17.842Z,11.03
2023-02-08T05:28:45.090Z,13.30
2023-02-08T05:31:15.573Z,10.00
2023-02-08T05:33:42.580Z,10.63
2023-02-08T05:36:09.865Z,11.27
2023-02-08T05:38:36.756Z,12.23
2023-02-08T05:41:03.684Z,10.00
2023-02-08T05:43:30.632Z,9.93
2023-02-08T05:45:57.503Z,11.33
2023-02-08T05:48:25.720Z,13.43
2023-02-08T05:50:52.546Z,10.97
2023-02-08T05:53:19.327Z,15.37
2023-02-08T05:55:48.487Z,10.67
2023-02-08T05:58:16.042Z,9.83
2023-02-08T06:00:43.663Z,9.57
2023-02-08T06:03:10.822Z,11.10
2023-02-08T06:05:40.615Z,11.50
2023-02-08T06:08:08.085Z,12.73
2023-02-08T06:10:35.424Z,12.63
2023-02-08T06:13:02.310Z,10.90
2023-02-08T06:15:29.128Z,11.47
2023-02-08T06:17:56.212Z,10.37
2023-02-08T06:20:23.127Z,9.67
2023-02-08T06:22:51.357Z,11.77
2023-02-08T06:25:18.502Z,14.73
2023-02-08T06:27:45.385Z,11.53
2023-02-08T06:30:12.897Z,12.17
2023-02-08T06:32:39.764Z,11.50
2023-02-08T06:35:07.499Z,12.83
2023-02-08T06:37:34.378Z,10.37
2023-02-08T06:40:02.611Z,11.47
2023-02-08T06:42:29.504Z,10.93
2023-02-08T06:44:57.944Z,13.27
2023-02-08T06:47:25.984Z,13.03
2023-02-08T06:49:53.134Z,12.57
2023-02-08T06:52:21.135Z,12.93
2023-02-08T06:54:48.494Z,14.03
2023-02-08T06:57:16.978Z,13.47
2023-02-08T06:59:44.008Z,13.13
2023-02-08T07:02:14.276Z,12.03
2023-02-08T07:04:41.320Z,10.67
2023-02-08T07:07:08.589Z,12.80
2023-02-08T07:09:35.915Z,15.50
2023-02-08T07:12:05.674Z,12.63
2023-02-08T07:14:35.419Z,14.63
2023-02-08T07:17:03.315Z,13.47
2023-02-08T07:19:30.603Z,13.90
2023-02-08T07:22:03.128Z,14.97
2023-02-08T07:24:30.151Z,14.07
2023-02-08T07:26:57.079Z,12.33
2023-02-08T07:29:24.034Z,13.30
2023-02-08T07:31:52.322Z,13.40
2023-02-08T07:34:21.879Z,13.93
2023-02-08T07:36:49.424Z,12.93
2023-02-08T07:39:16.469Z,11.90
2023-02-08T07:41:43.349Z,13.07
2023-02-08T07:44:10.398Z,11.83
2023-02-08T07:46:37.228Z,13.57
2023-02-08T07:49:05.472Z,15.87
2023-02-08T07:51:32.341Z,13.00
2023-02-08T07:53:59.354Z,14.40
2023-02-08T07:56:26.170Z,12.27
2023-02-08T07:58:53.033Z,11.30
2023-02-08T08:01:22.568Z,13.27
2023-02-08T08:03:50.663Z,12.83
2023-02-08T08:06:19.679Z,14.70
2023-02-08T08:08:47.594Z,15.70
2023-02-08T08:11:14.723Z,12.60
2023-02-08T08:13:41.670Z,11.70
2023-02-08T08:16:08.583Z,13.57
2023-02-08T08:18:36.024Z,13.87
2023-02-08T08:21:03.221Z,12.57
2023-02-08T08:23:33.166Z,11.97
2023-02-08T08:26:00.000Z,12.80
2023-02-08T08:28:27.662Z,13.83
2023-02-08T08:30:54.668Z,13.13
2023-02-08T08:33:21.596Z,12.67
2023-02-08T08:35:48.535Z,13.63
2023-02-08T08:38:15.383Z,13.03
2023-02-08T08:40:43.736Z,13.73
2023-02-08T08:43:10.676Z,12.53
2023-02-08T08:45:38.214Z,14.60
2023-02-08T08:48:05.338Z,11.83
2023-02-08T08:50:32.125Z,12.73
2023-02-08T08:52:58.919Z,13.57
2023-02-08T08:55:26.189Z,14.83
2023-02-08T08:57:54.685Z,12.47
2023-02-08T09:00:21.781Z,13.57
2023-02-08T09:02:48.686Z,14.07
2023-02-08T09:05:15.556Z,14.13
2023-02-08T09:07:42.458Z,13.27
2023-02-08T09:10:09.700Z,15.63
2023-02-08T09:12:36.649Z,14.20
2023-02-08T09:15:05.764Z,12.70
2023-02-08T09:17:32.692Z,14.13
2023-02-08T09:19:59.607Z,12.93
2023-02-08T09:22:26.474Z,13.40
2023-02-08T09:24:53.845Z,13.40
2023-02-08T09:27:20.780Z,11.90
2023-02-08T09:29:47.665Z,14.13
2023-02-08T09:32:15.879Z,13.40
2023-02-08T09:34:42.704Z,13.67
2023-02-08T09:37:09.502Z,14.40
2023-02-08T09:39:36.339Z,12.70
2023-02-08T09:42:25.647Z,15.80
2023-02-08T09:45:02.906Z,12.63
2023-02-08T09:47:35.966Z,13.03
2023-02-08T09:50:09.936Z,12.37
2023-02-08T09:52:41.235Z,13.10
2023-02-08T09:55:21.452Z,13.07
2023-02-08T09:57:51.632Z,12.43
2023-02-08T10:00:24.455Z,12.97
2023-02-08T10:02:54.069Z,13.10
2023-02-08T10:05:23.276Z,13.17
2023-02-08T10:07:50.124Z,11.57
2023-02-08T10:10:22.369Z,13.37
2023-02-08T10:12:57.079Z,11.57
2023-02-08T10:15:35.405Z,11.77
2023-02-08T10:18:19.170Z,13.00
2023-02-08T10:21:00.974Z,12.47
2023-02-08T10:23:46.630Z,11.80
2023-02-08T10:26:18.557Z,11.77
2023-02-08T10:29:20.549Z,12.17
2023-02-08T10:32:06.038Z,11.30
2023-02-08T10:34:44.290Z,11.63
2023-02-08T10:37:14.372Z,11.80
2023-02-08T10:39:41.279Z,12.77
2023-02-08T10:42:14.346Z,12.93
2023-02-08T10:44:54.888Z,11.83
2023-02-08T10:47:34.220Z,11.03
2023-02-08T10:50:06.395Z,11.90
2023-02-08T10:52:33.326Z,10.70
2023-02-08T10:55:00.735Z,10.47
2023-02-08T10:57:30.753Z,10.53
2023-02-08T11:00:01.883Z,12.67
2023-02-08T11:02:31.864Z,11.33
2023-02-08T11:05:00.414Z,8.90
2023-02-08T11:07:29.007Z,11.63
2023-02-08T11:10:13.823Z,10.77
2023-02-08T11:12:41.873Z,12.37
2023-02-08T11:15:22.738Z,11.87
2023-02-08T11:17:55.050Z,12.67
2023-02-08T11:20:28.924Z,12.30
2023-02-08T11:22:57.935Z,8.87
2023-02-08T11:25:35.732Z,9.00
2023-02-08T11:28:03.338Z,9.33
2023-02-08T11:30:30.466Z,10.13
2023-02-08T11:33:18.537Z,11.20
2023-02-08T11:35:55.237Z,10.20
2023-02-08T11:38:27.594Z,10.83
2023-02-08T11:40:57.693Z,11.80
2023-02-08T11:43:27.976Z,10.40
2023-02-08T11:45:56.837Z,10.43
2023-02-08T11:48:30.507Z,8.97
2023-02-08T11:51:00.413Z,7.67
2023-02-08T11:53:33.448Z,8.23
2023-02-08T11:56:06.664Z,7.70
2023-02-08T11:58:34.122Z,7.50
2023-02-08T12:01:04.024Z,8.10
2023-02-08T12:03:34.193Z,8.10
2023-02-08T12:06:16.365Z,8.17
2023-02-08T12:08:52.567Z,7.57
2023-02-08T12:11:24.567Z,7.50
2023-02-08T12:14:20.271Z,7.57
2023-02-08T12:16:58.256Z,7.00
2023-02-08T12:19:49.949Z,8.23
2023-02-08T12:22:23.821Z,6.47
2023-02-08T12:25:00.108Z,8.13
2023-02-08T12:27:37.594Z,7.40
2023-02-08T12:30:11.229Z,7.60
2023-02-08T12:33:09.557Z,7.00
2023-02-08T12:36:05.652Z,6.57
2023-02-08T12:39:17.802Z,9.13
2023-02-08T12:41:59.745Z,6.80
2023-02-08T12:44:34.198Z,7.70
2023-02-08T12:47:12.344Z,8.07
2023-02-08T12:49:51.362Z,5.73
2023-02-08T12:52:28.692Z,7.20
2023-02-08T12:54:58.312Z,6.20
2023-02-08T12:57:31.688Z,6.87
2023-02-08T13:00:03.374Z,7.53
2023-02-08T13:02:34.062Z,8.40
2023-02-08T13:05:06.332Z,7.67
2023-02-08T13:07:36.038Z,6.93
2023-02-08T13:10:12.465Z,8.83
2023-02-08T13:12:44.122Z,7.77
2023-02-08T13:15:30.222Z,7.50
2023-02-08T13:18:01.329Z,8.43
2023-02-08T13:20:38.415Z,7.33
2023-02-08T13:23:15.255Z,8.87
2023-02-08T13:25:43.238Z,7.23
2023-02-08T13:28:20.434Z,6.97
2023-02-08T13:30:55.104Z,7.97
2023-02-08T13:33:30.108Z,8.10
2023-02-08T13:35:58.100Z,8.10
2023-02-08T13:38:28.339Z,7.80
2023-02-08T13:41:16.364Z,8.13
2023-02-08T13:43:49.997Z,7.60
2023-02-08T13:46:17.941Z,8.37
2023-02-08T13:48:47.722Z,7.90
2023-02-08T13:51:51.183Z,8.90
2023-02-08T13:54:18.199Z,8.83
2023-02-08T13:56:46.620Z,8.27
2023-02-08T13:59:34.970Z,9.03
2023-02-08T14:02:29.684Z,9.87
2023-02-08T14:05:35.439Z,8.80
2023-02-08T14:08:04.259Z,9.77
2023-02-08T14:10:37.729Z,9.60
2023-02-08T14:13:15.720Z,9.60
2023-02-08T14:15:44.209Z,9.60
2023-02-08T14:18:25.871Z,8.37
2023-02-08T14:21:02.306Z,10.53
2023-02-08T14:23:31.794Z,12.33
2023-02-08T14:26:03.174Z,9.03
2023-02-08T14:28:34.104Z,10.30
2023-02-08T14:31:07.228Z,9.70
2023-02-08T14:33:37.380Z,13.03
2023-02-08T14:36:07.130Z,11.30
2023-02-08T14:38:51.831Z,9.70
2023-02-08T14:41:47.203Z,10.07
2023-02-08T14:44:53.955Z,11.67
2023-02-08T14:48:03.873Z,11.53
2023-02-08T14:50:52.147Z,10.60
2023-02-08T14:53:33.132Z,11.57
2023-02-08T14:56:05.115Z,10.80
2023-02-08T14:58:35.576Z,12.33
2023-02-08T15:01:07.113Z,11.60
2023-02-08T15:03:35.082Z,13.63
2023-02-08T15:06:29.017Z,11.63
2023-02-08T15:08:56.337Z,13.00
2023-02-08T15:11:25.601Z,12.13
2023-02-08T15:13:55.968Z,13.00
2023-02-08T15:16:29.047Z,12.07
2023-02-08T15:18:56.021Z,15.07
2023-02-08T15:21:31.541Z,12.90
2023-02-08T15:23:59.884Z,13.90
2023-02-08T15:26:26.917Z,15.33
2023-02-08T15:28:54.108Z,12.20
2023-02-08T15:31:23.620Z,13.23
2023-02-08T15:33:53.017Z,12.83
2023-02-08T15:36:25.835Z,13.50
2023-02-08T15:38:55.213Z,12.67
2023-02-08T15:41:27.505Z,13.73
2023-02-08T15:44:03.067Z,14.30
2023-02-08T15:46:30.726Z,12.87
2023-02-08T15:48:59.198Z,16.30
2023-02-08T15:51:28.865Z,14.30
2023-02-08T15:53:56.889Z,14.37
2023-02-08T15:56:36.786Z,14.20
2023-02-08T15:59:06.290Z,13.77
2023-02-08T16:01:33.883Z,13.93
2023-02-08T16:04:12.275Z,14.97
2023-02-08T16:06:47.362Z,15.27
2023-02-08T16:09:18.898Z,15.13
2023-02-08T16:11:49.891Z,15.20
2023-02-08T16:14:22.634Z,16.43
2023-02-08T16:16:52.834Z,14.93
2023-02-08T16:19:25.928Z,17.00
2023-02-08T16:21:56.451Z,15.27
2023-02-08T16:24:26.303Z,15.80
2023-02-08T16:27:00.735Z,15.17
2023-02-08T16:29:29.798Z,18.63
2023-02-08T16:32:03.591Z,16.63
2023-02-08T16:34:33.028Z,16.73
2023-02-08T16:37:02.619Z,16.53
2023-02-08T16:39:51.236Z,20.70
2023-02-08T16:42:26.611Z,20.37
2023-02-08T16:45:15.556Z,18.40
2023-02-08T16:47:45.063Z,19.13
2023-02-08T16:50:14.390Z,17.70
2023-02-08T16:52:42.790Z,16.83
2023-02-08T16:55:16.730Z,21.93
2023-02-08T16:57:45.876Z,18.13
2023-02-08T17:00:19.420Z,18.03
2023-02-08T17:02:46.783Z,19.50
2023-02-08T17:05:13.800Z,17.63
2023-02-08T17:07:42.039Z,18.03
2023-02-08T17:10:15.755Z,21.47
2023-02-08T17:12:42.665Z,22.07
2023-02-08T17:15:09.870Z,18.90
2023-02-08T17:17:36.713Z,19.00
2023-02-08T17:20:04.323Z,17.00
2023-02-08T17:22:31.201Z,19.83
2023-02-08T17:24:59.838Z,20.57
2023-02-08T17:27:26.882Z,20.33
2023-02-08T17:29:53.708Z,23.27
2023-02-08T17:32:20.533Z,19.03
2023-02-08T17:34:47.428Z,20.03
2023-02-08T17:37:14.536Z,19.30
2023-02-08T17:39:41.889Z,20.03
2023-02-08T17:42:12.044Z,21.50
2023-02-08T17:44:39.534Z,19.57
2023-02-08T17:47:06.391Z,17.27
2023-02-08T17:49:33.351Z,19.87
2023-02-08T17:52:00.230Z,20.50
2023-02-08T17:54:27.063Z,21.13
2023-02-08T17:56:58.426Z,18.03
2023-02-08T17:59:27.316Z,19.80
2023-02-08T18:01:54.259Z,21.80
2023-02-08T18:04:21.202Z,19.50
2023-02-08T18:06:48.079Z,22.47
2023-02-08T18:09:14.978Z,20.87
2023-02-08T18:11:42.468Z,19.40
2023-02-08T18:14:09.479Z,22.57
2023-02-08T18:16:37.791Z,21.23
2023-02-08T18:19:04.713Z,21.10
2023-02-08T18:21:33.168Z,19.47
2023-02-08T18:24:00.916Z,19.93
2023-02-08T18:26:28.333Z,21.83
2023-02-08T18:28:55.208Z,19.37
2023-02-08T18:31:22.500Z,20.93
2023-02-08T18:33:51.403Z,24.47
2023-02-08T18:36:20.436Z,24.60
2023-02-08T18:38:49.133Z,19.23
2023-02-08T18:41:18.655Z,20.63
2023-02-08T18:43:45.868Z,44.07
2023-02-08T18:46:15.366Z,32.23
2023-02-08T18:48:42.373Z,26.67
2023-02-08T18:51:12.555Z,22.63
2023-02-08T18:53:42.153Z,21.37
2023-02-08T18:56:11.513Z,20.10
2023-02-08T18:58:38.518Z,21.27
2023-02-08T19:01:07.186Z,20.27
2023-02-08T19:03:35.757Z,25.03
2023-02-08T19:06:05.168Z,21.90
2023-02-08T19:08:35.020Z,24.80
2023-02-08T19:11:01.815Z,23.50
2023-02-08T19:13:29.173Z,21.63
2023-02-08T19:15:56.362Z,21.23
2023-02-08T19:18:23.392Z,22.10
2023-02-08T19:20:50.225Z,23.87
2023-02-08T19:23:17.160Z,22.20
2023-02-08T19:25:46.557Z,25.37
2023-02-08T19:28:13.499Z,23.03
2023-02-08T19:30:40.412Z,24.37
2023-02-08T19:33:07.255Z,22.27
2023-02-08T19:35:37.256Z,20.07
2023-02-08T19:38:04.689Z,23.37
2023-02-08T19:40:31.600Z,22.20
2023-02-08T19:42:59.874Z,24.47
2023-02-08T19:45:26.852Z,21.53
2023-02-08T19:47:54.934Z,21.00
2023-02-08T19:50:21.845Z,20.30
2023-02-08T19:52:48.764Z,20.97
2023-02-08T19:55:15.808Z,21.97
2023-02-08T19:57:43.035Z,20.50
2023-02-08T20:00:23.044Z,22.20
2023-02-08T20:02:50.617Z,24.17
2023-02-08T20:05:17.642Z,23.83
2023-02-08T20:07:44.622Z,32.33
2023-02-08T20:10:11.565Z,28.27
2023-02-08T20:12:38.400Z,22.53
2023-02-08T20:15:05.990Z,22.40
2023-02-08T20:17:34.284Z,23.80
2023-02-08T20:20:01.083Z,22.77
2023-02-08T20:22:27.957Z,22.77
2023-02-08T20:24:54.849Z,19.50
2023-02-08T20:27:21.822Z,20.83
2023-02-08T20:29:48.687Z,21.17
2023-02-08T20:32:15.569Z,21.83
2023-02-08T20:34:53.903Z,19.53
2023-02-08T20:37:25.647Z,19.27
2023-02-08T20:39:52.512Z,21.17
2023-02-08T20:42:19.342Z,20.83
2023-02-08T20:45:29.280Z,22.50
2023-02-08T20:47:56.286Z,21.53
2023-02-08T20:50:25.186Z,20.60
2023-02-08T20:52:53.055Z,22.13
2023-02-08T20:55:20.015Z,19.07
2023-02-08T20:57:46.904Z,18.57
2023-02-08T21:00:14.746Z,18.87
2023-02-08T21:02:42.348Z,20.77
2023-02-08T21:05:09.186Z,19.03
2023-02-08T21:07:40.284Z,22.50
2023-02-08T21:10:07.974Z,22.30
2023-02-08T21:12:34.793Z,22.00
2023-02-08T21:15:01.616Z,20.73
2023-02-08T21:17:28.563Z,23.07
2023-02-08T21:19:55.432Z,23.97
2023-02-08T21:22:22.222Z,22.90
2023-02-08T21:24:50.345Z,25.27
2023-02-08T21:27:18.955Z,22.70
2023-02-08T21:29:49.339Z,23.67
2023-02-08T21:32:16.206Z,24.07
2023-02-08T21:34:43.014Z,21.70
2023-02-08T21:37:09.952Z,24.47
2023-02-08T21:39:36.821Z,24.30
2023-02-08T21:42:05.257Z,22.47
2023-02-08T21:44:35.084Z,22.40
2023-02-08T21:47:02.588Z,23.83
2023-02-08T21:49:47.984Z,20.37
2023-02-08T21:52:33.613Z,22.00
2023-02-08T21:55:00.811Z,23.97
2023-02-08T21:57:30.294Z,21.87
2023-02-08T21:59:59.202Z,24.17
2023-02-08T22:02:28.957Z,21.70
2023-02-08T22:04:57.343Z,21.67
2023-02-08T22:07:24.976Z,24.53
2023-02-08T22:09:51.922Z,22.07
2023-02-08T22:12:20.853Z,22.07
2023-02-08T22:14:49.991Z,20.70
2023-02-08T22:17:17.245Z,22.87
2023-02-08T22:19:44.337Z,20.97
2023-02-08T22:22:11.839Z,23.03
2023-02-08T22:24:38.913Z,21.00
2023-02-08T22:27:05.973Z,20.30
2023-02-08T22:29:32.864Z,20.33
2023-02-08T22:32:01.369Z,23.70
2023-02-08T22:34:28.625Z,28.20
2023-02-08T22:36:55.473Z,30.63
2023-02-08T22:39:22.364Z,31.77
2023-02-08T22:41:49.499Z,31.10
2023-02-08T22:44:16.450Z,26.27
2023-02-08T22:46:43.319Z,31.67
2023-02-08T22:49:11.609Z,33.73
2023-02-08T22:51:38.558Z,28.70
2023-02-08T22:54:06.015Z,31.40
2023-02-08T22:56:34.066Z,29.13
2023-02-08T22:59:01.162Z,28.53
2023-02-08T23:01:28.528Z,28.83
2023-02-08T23:03:55.415Z,28.30
2023-02-08T23:06:23.628Z,24.83
2023-02-08T23:08:50.628Z,26.53
2023-02-08T23:11:18.729Z,25.10
2023-02-08T23:13:45.624Z,23.73
2023-02-08T23:16:12.990Z,26.17
2023-02-08T23:18:39.958Z,24.03
2023-02-08T23:21:07.519Z,22.93
2023-02-08T23:23:36.180Z,23.50
2023-02-08T23:26:05.657Z,25.47
2023-02-08T23:28:32.916Z,24.97
2023-02-08T23:31:00.190Z,24.97
2023-02-08T23:33:27.070Z,24.23
2023-02-08T23:35:53.939Z,25.30
2023-02-08T23:38:20.837Z,26.00
2023-02-08T23:40:48.982Z,23.73
2023-02-08T23:43:15.831Z,25.40
2023-02-08T23:45:42.787Z,23.37
2023-02-08T23:48:09.630Z,28.23
2023-02-08T23:50:36.566Z,28.37
2023-02-08T23:53:03.436Z,28.60
2023-02-08T23:55:31.017Z,28.07
2023-02-08T23:57:59.229Z,24.77
